createdAt,value
2022-08-25T00:00:30.258Z,92891.84
2022-08-25T00:02:04.718Z,92891.06
2022-08-25T00:03:39.500Z,92895.78
2022-08-25T00:05:11.725Z,92890.41
2022-08-25T00:06:44.046Z,92889.31
2022-08-25T00:08:16.473Z,92893.69
2022-08-25T00:09:48.489Z,92887.88
2022-08-25T00:11:21.504Z,92884.78
2022-08-25T00:12:53.445Z,92880.16
2022-08-25T00:14:28.925Z,92879.81
2022-08-25T00:16:00.810Z,92885.69
2022-08-25T00:17:33.121Z,92879.88
2022-08-25T00:19:06.003Z,92877.50
2022-08-25T00:20:37.628Z,92876.72
2022-08-25T00:22:14.886Z,92874.72
2022-08-25T00:23:46.896Z,92875.50
2022-08-25T00:25:18.785Z,92882.06
2022-08-25T00:26:51.067Z,92883.94
2022-08-25T00:28:23.569Z,92881.56
2022-08-25T00:29:55.212Z,92877.25
2022-08-25T00:31:37.741Z,92873.44
2022-08-25T00:33:10.748Z,92876.25
2022-08-25T00:34:42.621Z,92870.38
2022-08-25T00:36:14.743Z,92868.00
2022-08-25T00:37:46.340Z,92885.44
2022-08-25T00:39:18.913Z,92885.75
2022-08-25T00:41:06.113Z,92889.56
2022-08-25T00:42:38.719Z,92879.75
2022-08-25T00:44:11.196Z,92885.50
2022-08-25T00:45:42.967Z,92885.50
2022-08-25T00:47:14.614Z,92882.34
2022-08-25T00:48:47.633Z,92881.88
2022-08-25T00:50:19.406Z,92888.44
2022-08-25T00:51:53.850Z,92881.75
2022-08-25T00:53:25.741Z,92880.97
2022-08-25T00:55:08.107Z,92882.09
2022-08-25T00:56:40.052Z,92885.97
2022-08-25T00:58:14.353Z,92886.78
2022-08-25T00:59:46.202Z,92889.50
2022-08-25T01:01:18.346Z,92880.97
2022-08-25T01:02:50.814Z,92875.50
2022-08-25T01:04:22.382Z,92879.81
2022-08-25T01:05:54.130Z,92878.31
2022-08-25T01:07:26.265Z,92879.88
2022-08-25T01:08:58.084Z,92870.19
2022-08-25T01:10:30.410Z,92879.25
2022-08-25T01:12:02.198Z,92882.84
2022-08-25T01:13:35.614Z,92878.97
2022-08-25T01:15:08.226Z,92875.44
2022-08-25T01:16:39.852Z,92879.31
2022-08-25T01:18:12.425Z,92879.75
2022-08-25T01:19:44.530Z,92878.97
2022-08-25T01:21:16.636Z,92884.81
2022-08-25T01:22:49.267Z,92878.19
2022-08-25T01:24:36.639Z,92882.75
2022-08-25T01:26:09.905Z,92876.97
2022-08-25T01:27:41.672Z,92875.84
2022-08-25T01:29:22.331Z,92870.00
2022-08-25T01:30:54.354Z,92871.94
2022-08-25T01:32:27.588Z,92871.16
2022-08-25T01:33:59.318Z,92869.22
2022-08-25T01:35:31.306Z,92872.38
2022-08-25T01:37:03.044Z,92868.47
2022-08-25T01:38:34.942Z,92869.69
2022-08-25T01:40:06.919Z,92859.31
2022-08-25T01:41:41.512Z,92859.44
2022-08-25T01:43:13.294Z,92869.63
2022-08-25T01:44:45.444Z,92865.34
2022-08-25T01:46:17.167Z,92873.69
2022-08-25T01:47:48.777Z,92864.47
2022-08-25T01:49:20.938Z,92863.47
2022-08-25T01:50:52.532Z,92869.44
2022-08-25T01:52:25.941Z,92863.50
2022-08-25T01:53:57.537Z,92867.38
2022-08-25T01:55:29.710Z,92862.28
2022-08-25T01:57:01.872Z,92862.72
2022-08-25T01:58:34.573Z,92865.44
2022-08-25T02:00:07.380Z,92865.47
2022-08-25T02:01:39.275Z,92873.31
2022-08-25T02:03:15.852Z,92864.78
2022-08-25T02:04:50.782Z,92876.91
2022-08-25T02:06:28.822Z,92881.63
2022-08-25T02:08:02.098Z,92872.72
2022-08-25T02:09:33.761Z,92878.59
2022-08-25T02:11:05.504Z,92883.31
2022-08-25T02:12:37.119Z,92880.28
2022-08-25T02:14:09.304Z,92884.94
2022-08-25T02:15:42.057Z,92884.19
2022-08-25T02:17:13.586Z,92885.34
2022-08-25T02:18:45.733Z,92883.03
2022-08-25T02:20:17.587Z,92876.53
2022-08-25T02:21:49.198Z,92880.03
2022-08-25T02:23:20.918Z,92880.81
2022-08-25T02:24:52.533Z,92882.41
2022-08-25T02:26:24.144Z,92882.03
2022-08-25T02:27:55.792Z,92875.44
2022-08-25T02:29:27.405Z,92880.16
2022-08-25T02:31:01.628Z,92881.72
2022-08-25T02:32:34.773Z,92884.47
2022-08-25T02:34:06.784Z,92880.59
2022-08-25T02:35:39.417Z,92892.63
2022-08-25T02:37:11.037Z,92885.59
2022-08-25T02:38:42.638Z,92890.69
2022-08-25T02:40:14.414Z,92893.06
2022-08-25T02:41:46.294Z,92897.81
2022-08-25T02:43:17.909Z,92900.59
2022-08-25T02:44:49.655Z,92882.34
2022-08-25T02:46:22.047Z,92892.09
2022-08-25T02:47:54.213Z,92894.03
2022-08-25T02:49:25.897Z,92897.50
2022-08-25T02:50:59.204Z,92896.78
2022-08-25T02:52:31.081Z,92897.13
2022-08-25T02:54:03.192Z,92893.25
2022-08-25T02:55:36.529Z,92890.16
2022-08-25T02:57:08.227Z,92895.19
2022-08-25T02:58:40.209Z,92901.78
2022-08-25T03:00:12.848Z,92896.41
2022-08-25T03:01:44.752Z,92904.88
2022-08-25T03:03:16.761Z,92902.16
2022-08-25T03:04:48.495Z,92897.44
2022-08-25T03:06:22.420Z,92899.81
2022-08-25T03:07:54.104Z,92897.88
2022-08-25T03:09:27.340Z,92891.31
2022-08-25T03:10:58.912Z,92906.97
2022-08-25T03:12:31.265Z,92907.38
2022-08-25T03:14:03.009Z,92905.50
2022-08-25T03:15:38.011Z,92904.78
2022-08-25T03:17:10.528Z,92904.34
2022-08-25T03:18:42.394Z,92904.72
2022-08-25T03:20:14.005Z,92903.91
2022-08-25T03:21:46.785Z,92908.22
2022-08-25T03:23:18.389Z,92906.28
2022-08-25T03:24:50.335Z,92895.44
2022-08-25T03:26:40.637Z,92896.59
2022-08-25T03:28:12.484Z,92895.38
2022-08-25T03:29:44.093Z,92898.47
2022-08-25T03:31:15.826Z,92904.41
2022-08-25T03:32:47.510Z,92899.31
2022-08-25T03:34:19.534Z,92898.88
2022-08-25T03:35:51.326Z,92900.03
2022-08-25T03:37:22.890Z,92890.66
2022-08-25T03:38:54.651Z,92900.47
2022-08-25T03:40:26.637Z,92900.03
2022-08-25T03:41:58.282Z,92902.34
2022-08-25T03:43:29.957Z,92900.41
2022-08-25T03:45:05.059Z,92899.59
2022-08-25T03:46:44.098Z,92896.88
2022-08-25T03:48:15.956Z,92899.25
2022-08-25T03:49:48.074Z,92898.47
2022-08-25T03:51:20.909Z,92895.72
2022-08-25T03:52:54.094Z,92891.44
2022-08-25T03:54:25.940Z,92894.13
2022-08-25T03:55:57.846Z,92892.91
2022-08-25T03:57:29.566Z,92892.53
2022-08-25T03:59:01.238Z,92898.34
2022-08-25T04:00:32.918Z,92895.25
2022-08-25T04:02:05.300Z,92895.34
2022-08-25T04:03:36.939Z,92893.78
2022-08-25T04:05:09.638Z,92886.03
2022-08-25T04:06:41.449Z,92895.00
2022-08-25T04:08:13.247Z,92888.41
2022-08-25T04:09:45.209Z,92892.00
2022-08-25T04:11:20.686Z,92893.97
2022-08-25T04:12:52.927Z,92887.38
2022-08-25T04:14:24.604Z,92890.88
2022-08-25T04:15:56.130Z,92894.41
2022-08-25T04:17:28.009Z,92888.53
2022-08-25T04:19:00.016Z,92881.13
2022-08-25T04:20:31.877Z,92878.53
2022-08-25T04:22:03.594Z,92878.22
2022-08-25T04:23:35.675Z,92880.22
2022-08-25T04:25:07.634Z,92874.41
2022-08-25T04:26:42.345Z,92877.84
2022-08-25T04:28:14.449Z,92880.22
2022-08-25T04:29:47.400Z,92873.97
2022-08-25T04:31:19.203Z,92877.41
2022-08-25T04:32:51.258Z,92877.06
2022-08-25T04:34:30.555Z,92875.53
2022-08-25T04:36:03.676Z,92874.81
2022-08-25T04:37:35.499Z,92871.66
2022-08-25T04:39:07.202Z,92865.78
2022-08-25T04:40:38.819Z,92869.31
2022-08-25T04:42:10.416Z,92863.16
2022-08-25T04:43:42.118Z,92863.59
2022-08-25T04:45:13.832Z,92861.63
2022-08-25T04:46:45.399Z,92866.38
2022-08-25T04:48:17.600Z,92862.16
2022-08-25T04:49:49.877Z,92861.81
2022-08-25T04:51:23.856Z,92871.56
2022-08-25T04:52:55.578Z,92871.19
2022-08-25T04:54:28.636Z,92873.25
2022-08-25T04:56:08.455Z,92866.78
2022-08-25T04:57:40.203Z,92865.72
2022-08-25T04:59:12.347Z,92863.06
2022-08-25T05:00:44.220Z,92859.31
2022-08-25T05:02:16.351Z,92862.47
2022-08-25T05:03:48.276Z,92871.16
2022-08-25T05:05:19.964Z,92859.84
2022-08-25T05:06:51.921Z,92868.84
2022-08-25T05:08:24.606Z,92874.31
2022-08-25T05:09:56.344Z,92876.63
2022-08-25T05:11:28.272Z,92875.84
2022-08-25T05:13:00.219Z,92876.69
2022-08-25T05:14:32.099Z,92868.19
2022-08-25T05:16:04.094Z,92867.06
2022-08-25T05:17:35.990Z,92862.81
2022-08-25T05:19:08.335Z,92862.06
2022-08-25T05:20:40.017Z,92864.44
2022-08-25T05:22:12.736Z,92868.38
2022-08-25T05:23:44.542Z,92873.16
2022-08-25T05:25:16.417Z,92868.97
2022-08-25T05:26:48.061Z,92863.16
2022-08-25T05:28:20.016Z,92856.16
2022-08-25T05:29:51.908Z,92858.53
2022-08-25T05:31:24.087Z,92862.41
2022-08-25T05:32:55.937Z,92864.72
2022-08-25T05:34:28.106Z,92866.31
2022-08-25T05:36:00.542Z,92854.94
2022-08-25T05:37:32.561Z,92868.25
2022-08-25T05:39:04.667Z,92859.69
2022-08-25T05:40:36.514Z,92862.47
2022-08-25T05:42:08.838Z,92860.16
2022-08-25T05:43:41.440Z,92868.34
2022-08-25T05:45:20.261Z,92862.56
2022-08-25T05:46:53.246Z,92862.63
2022-08-25T05:48:25.204Z,92866.16
2022-08-25T05:49:56.904Z,92854.88
2022-08-25T05:51:30.941Z,92861.16
2022-08-25T05:53:02.718Z,92863.41
2022-08-25T05:54:34.444Z,92858.63
2022-08-25T05:56:06.650Z,92853.47
2022-08-25T05:57:41.833Z,92856.81
2022-08-25T05:59:13.748Z,92863.03
2022-08-25T06:00:45.631Z,92861.88
2022-08-25T06:02:36.045Z,92863.06
2022-08-25T06:04:07.831Z,92863.50
2022-08-25T06:05:39.767Z,92867.47
2022-08-25T06:07:11.509Z,92858.56
2022-08-25T06:08:44.420Z,92854.31
2022-08-25T06:10:16.488Z,92852.06
2022-08-25T06:11:50.632Z,92856.09
2022-08-25T06:13:28.809Z,92854.63
2022-08-25T06:15:00.958Z,92858.66
2022-08-25T06:16:33.865Z,92858.34
2022-08-25T06:18:05.869Z,92852.81
2022-08-25T06:19:39.679Z,92861.75
2022-08-25T06:21:13.503Z,92862.09
2022-08-25T06:22:45.439Z,92860.53
2022-08-25T06:24:17.614Z,92859.78
2022-08-25T06:25:50.483Z,92858.25
2022-08-25T06:27:23.227Z,92855.13
2022-08-25T06:28:55.360Z,92856.28
2022-08-25T06:30:28.864Z,92856.22
2022-08-25T06:32:01.845Z,92860.84
2022-08-25T06:33:33.759Z,92863.09
2022-08-25T06:35:06.073Z,92868.09
2022-08-25T06:36:37.901Z,92867.00
2022-08-25T06:38:09.815Z,92876.78
2022-08-25T06:39:41.738Z,92866.69
2022-08-25T06:41:14.242Z,92863.63
2022-08-25T06:42:48.719Z,92865.28
2022-08-25T06:44:21.763Z,92867.28
2022-08-25T06:45:54.019Z,92872.09
2022-08-25T06:47:25.703Z,92875.34
2022-08-25T06:48:57.888Z,92870.31
2022-08-25T06:50:30.018Z,92861.78
2022-08-25T06:52:01.888Z,92867.69
2022-08-25T06:53:34.028Z,92866.16
2022-08-25T06:55:07.364Z,92857.25
2022-08-25T06:56:42.790Z,92857.03
2022-08-25T06:58:14.831Z,92857.88
2022-08-25T06:59:46.963Z,92856.78
2022-08-25T07:01:25.988Z,92851.34
2022-08-25T07:02:58.775Z,92844.34
2022-08-25T07:04:31.716Z,92846.38
2022-08-25T07:06:04.395Z,92848.75
2022-08-25T07:07:44.154Z,92848.78
2022-08-25T07:09:16.567Z,92847.63
2022-08-25T07:10:48.467Z,92844.09
2022-08-25T07:12:22.037Z,92850.00
2022-08-25T07:13:54.036Z,92852.78
2022-08-25T07:15:25.707Z,92848.44
2022-08-25T07:16:58.484Z,92847.66
2022-08-25T07:18:31.410Z,92842.13
2022-08-25T07:20:03.969Z,92849.16
2022-08-25T07:21:36.768Z,92850.72
2022-08-25T07:23:09.152Z,92851.47
2022-08-25T07:24:41.490Z,92849.50
2022-08-25T07:28:09.888Z,92845.13
2022-08-25T07:29:42.833Z,92847.88
2022-08-25T07:31:15.138Z,92847.50
2022-08-25T07:32:47.386Z,92849.06
2022-08-25T07:34:45.395Z,92831.72
2022-08-25T07:36:24.394Z,92849.75
2022-08-25T07:37:59.229Z,92837.94
2022-08-25T07:39:31.657Z,92838.28
2022-08-25T07:41:03.969Z,92833.09
2022-08-25T07:42:36.591Z,92842.84
2022-08-25T07:44:10.774Z,92840.00
2022-08-25T07:45:49.037Z,92840.78
2022-08-25T07:47:23.075Z,92840.34
2022-08-25T07:48:55.263Z,92843.03
2022-08-25T07:50:27.577Z,92828.78
2022-08-25T07:52:04.014Z,92840.09
2022-08-25T07:53:37.073Z,92834.06
2022-08-25T07:55:11.114Z,92826.47
2022-08-25T07:56:44.003Z,92828.34
2022-08-25T07:58:16.169Z,92825.03
2022-08-25T07:59:48.520Z,92823.31
2022-08-25T08:01:24.210Z,92835.00
2022-08-25T08:02:56.863Z,92825.78
2022-08-25T08:04:29.200Z,92816.63
2022-08-25T08:06:02.068Z,92820.38
2022-08-25T08:07:43.281Z,92823.91
2022-08-25T08:09:16.727Z,92821.84
2022-08-25T08:11:05.390Z,92817.88
2022-08-25T08:12:37.994Z,92816.66
2022-08-25T08:14:10.847Z,92807.06
2022-08-25T08:15:43.304Z,92804.56
2022-08-25T08:17:15.726Z,92801.75
2022-08-25T08:18:48.373Z,92807.56
2022-08-25T08:20:23.524Z,92800.41
2022-08-25T08:21:55.598Z,92809.63
2022-08-25T08:23:30.217Z,92804.56
2022-08-25T08:25:02.740Z,92804.31
2022-08-25T08:26:57.411Z,92807.84
2022-08-25T08:28:28.425Z,92807.06
2022-08-25T08:30:00.821Z,92798.66
2022-08-25T08:31:33.003Z,92804.09
2022-08-25T08:33:12.040Z,92803.91
2022-08-25T08:34:45.023Z,92812.44
2022-08-25T08:36:18.453Z,92804.81
2022-08-25T08:37:52.533Z,92809.75
2022-08-25T08:39:28.966Z,92810.22
2022-08-25T08:41:23.581Z,92816.53
2022-08-25T08:43:18.139Z,92803.50
2022-08-25T08:45:05.735Z,92808.75
2022-08-25T08:46:48.690Z,92799.84
2022-08-25T08:48:38.779Z,92801.56
2022-08-25T08:50:33.484Z,92805.56
2022-08-25T08:52:05.737Z,92799.69
2022-08-25T08:53:52.924Z,92807.66
2022-08-25T08:55:29.322Z,92807.72
2022-08-25T08:57:20.454Z,92803.09
2022-08-25T09:15:41.113Z,92794.38
2022-08-25T09:19:29.548Z,92787.06
2022-08-25T09:23:34.492Z,92784.66
2022-08-25T09:25:39.570Z,92782.28
2022-08-25T09:27:34.318Z,92778.22
2022-08-25T09:29:17.107Z,92776.03
2022-08-25T09:30:59.427Z,92772.94
2022-08-25T09:32:48.890Z,92771.41
2022-08-25T09:34:34.861Z,92764.00
2022-08-25T09:36:09.001Z,92766.44
2022-08-25T09:37:41.363Z,92770.88
2022-08-25T09:39:14.463Z,92769.81
2022-08-25T09:40:51.947Z,92772.25
2022-08-25T09:42:29.997Z,92772.75
2022-08-25T09:44:07.353Z,92770.91
2022-08-25T09:45:47.262Z,92771.16
2022-08-25T09:49:13.019Z,92766.16
2022-08-25T09:50:48.925Z,92771.38
2022-08-25T09:52:25.353Z,92769.66
2022-08-25T09:54:33.979Z,92771.28
2022-08-25T09:56:30.631Z,92767.19
2022-08-25T09:58:03.200Z,92768.19
2022-08-25T09:59:53.795Z,92767.84
2022-08-25T10:01:34.791Z,92766.09
2022-08-25T10:03:09.887Z,92765.53
2022-08-25T10:04:51.522Z,92761.72
2022-08-25T10:08:38.098Z,92769.69
2022-08-25T10:10:26.800Z,92759.63
2022-08-25T10:12:17.934Z,92761.38
2022-08-25T10:13:54.562Z,92762.00
2022-08-25T10:15:36.275Z,92758.88
2022-08-25T10:17:27.656Z,92755.06
2022-08-25T10:19:14.724Z,92756.78
2022-08-25T10:21:01.169Z,92760.00
2022-08-25T10:22:38.097Z,92762.34
2022-08-25T10:24:12.858Z,92762.22
2022-08-25T10:25:59.120Z,92757.47
2022-08-25T10:27:36.501Z,92772.63
2022-08-25T10:31:54.202Z,92747.69
2022-08-25T10:33:52.343Z,92753.28
2022-08-25T10:35:30.764Z,92747.53
2022-08-25T10:37:11.981Z,92741.69
2022-08-25T10:39:01.582Z,92737.75
2022-08-25T10:40:53.356Z,92743.59
2022-08-25T10:42:34.351Z,92742.41
2022-08-25T10:44:32.358Z,92741.22
2022-08-25T10:46:18.983Z,92744.97
2022-08-25T10:47:54.730Z,92740.50
2022-08-25T10:54:08.827Z,92736.56
2022-08-25T10:56:07.086Z,92739.00
2022-08-25T10:58:41.664Z,92748.06
2022-08-25T11:00:17.486Z,92754.66
2022-08-25T11:02:34.303Z,92741.44
2022-08-25T11:08:58.169Z,92740.78
2022-08-25T11:10:40.849Z,92740.59
2022-08-25T11:14:36.342Z,92729.19
2022-08-25T11:16:34.400Z,92723.28
2022-08-25T11:20:27.016Z,92719.84
2022-08-25T11:22:13.915Z,92716.66
2022-08-25T11:24:23.541Z,92713.13
2022-08-25T11:28:37.942Z,92709.28
2022-08-25T11:30:11.533Z,92708.72
2022-08-25T11:31:49.514Z,92711.44
2022-08-25T11:33:25.520Z,92712.84
2022-08-25T11:34:59.400Z,92712.03
2022-08-25T11:36:32.886Z,92705.66
2022-08-25T11:38:08.147Z,92705.28
2022-08-25T11:40:08.799Z,92708.84
2022-08-25T11:41:59.213Z,92700.03
2022-08-25T11:43:35.543Z,92707.78
2022-08-25T11:45:10.777Z,92699.06
2022-08-25T11:46:50.064Z,92704.13
2022-08-25T11:48:22.263Z,92708.81
2022-08-25T11:49:54.604Z,92698.13
2022-08-25T11:51:46.023Z,92697.53
2022-08-25T11:53:35.323Z,92697.22
2022-08-25T11:55:16.787Z,92694.38
2022-08-25T11:56:57.965Z,92697.44
2022-08-25T11:58:33.394Z,92698.53
2022-08-25T12:00:19.936Z,92689.47
2022-08-25T12:01:55.644Z,92698.00
2022-08-25T12:03:39.517Z,92699.56
2022-08-25T12:05:17.873Z,92692.13
2022-08-25T12:07:07.109Z,92690.56
2022-08-25T12:09:01.309Z,92699.41
2022-08-25T12:10:55.285Z,92691.34
2022-08-25T12:12:30.043Z,92692.03
2022-08-25T12:14:29.101Z,92687.09
2022-08-25T12:16:02.562Z,92694.06
2022-08-25T12:17:49.278Z,92694.38
2022-08-25T12:19:49.760Z,92687.78
2022-08-25T12:21:33.505Z,92693.44
2022-08-25T12:23:06.220Z,92685.25
2022-08-25T12:24:48.170Z,92686.41
2022-08-25T12:26:40.409Z,92688.75
2022-08-25T12:28:27.681Z,92682.34
2022-08-25T12:30:18.658Z,92676.81
2022-08-25T12:32:04.575Z,92679.56
2022-08-25T12:34:12.788Z,92680.28
2022-08-25T12:35:55.811Z,92678.69
2022-08-25T12:37:28.358Z,92677.41
2022-08-25T12:39:19.818Z,92669.94
2022-08-25T12:41:12.179Z,92669.44
2022-08-25T12:42:45.056Z,92673.06
2022-08-25T12:44:35.633Z,92678.69
2022-08-25T12:46:30.022Z,92675.69
2022-08-25T12:48:28.639Z,92678.38
2022-08-25T12:50:20.461Z,92677.00
2022-08-25T12:51:54.343Z,92668.38
2022-08-25T12:53:32.529Z,92672.53
2022-08-25T12:55:13.279Z,92665.84
2022-08-25T12:56:47.639Z,92681.00
2022-08-25T12:58:21.913Z,92673.03
2022-08-25T13:00:01.941Z,92669.56
2022-08-25T13:01:56.366Z,92678.88
2022-08-25T13:05:28.998Z,92674.81
2022-08-25T13:07:17.964Z,92668.72
2022-08-25T13:09:16.892Z,92660.84
2022-08-25T13:10:53.459Z,92667.13
2022-08-25T13:12:27.755Z,92667.13
2022-08-25T13:14:26.936Z,92668.69
2022-08-25T13:16:06.827Z,92666.34
2022-08-25T13:17:41.304Z,92670.88
2022-08-25T13:19:17.837Z,92667.50
2022-08-25T13:20:54.838Z,92669.59
2022-08-25T13:22:26.702Z,92670.09
2022-08-25T13:24:05.040Z,92665.06
2022-08-25T13:25:47.115Z,92670.25
2022-08-25T13:27:22.837Z,92673.44
2022-08-25T13:28:59.469Z,92670.31
2022-08-25T13:30:32.252Z,92670.06
2022-08-25T13:32:09.674Z,92672.50
2022-08-25T13:33:50.393Z,92670.91
2022-08-25T13:35:32.800Z,92673.75
2022-08-25T13:37:31.288Z,92668.41
2022-08-25T13:39:13.978Z,92670.31
2022-08-25T13:40:48.213Z,92672.63
2022-08-25T13:42:20.388Z,92670.22
2022-08-25T13:44:02.539Z,92673.94
2022-08-25T13:45:44.898Z,92664.72
2022-08-25T13:47:26.717Z,92669.22
2022-08-25T13:49:05.407Z,92666.28
2022-08-25T13:50:40.780Z,92663.78
2022-08-25T13:52:29.323Z,92658.81
2022-08-25T13:54:04.240Z,92666.16
2022-08-25T13:55:50.853Z,92666.16
2022-08-25T13:57:30.329Z,92667.72
2022-08-25T13:59:04.264Z,92660.00
2022-08-25T14:00:49.253Z,92661.81
2022-08-25T14:02:44.124Z,92663.75
2022-08-25T14:04:35.091Z,92663.19
2022-08-25T14:06:19.309Z,92665.81
2022-08-25T14:08:15.758Z,92658.84
2022-08-25T14:09:52.981Z,92658.16
2022-08-25T14:11:31.403Z,92662.59
2022-08-25T14:13:09.704Z,92662.84
2022-08-25T14:14:42.450Z,92660.06
2022-08-25T14:16:21.936Z,92668.91
2022-08-25T14:18:07.048Z,92653.41
2022-08-25T14:19:44.791Z,92653.31
2022-08-25T14:21:20.263Z,92652.34
2022-08-25T14:22:53.024Z,92649.06
2022-08-25T14:24:27.318Z,92648.22
2022-08-25T14:25:59.135Z,92640.75
2022-08-25T14:27:31.006Z,92643.59
2022-08-25T14:29:08.172Z,92643.59
2022-08-25T14:30:58.792Z,92646.75
2022-08-25T14:32:30.700Z,92643.25
2022-08-25T14:34:06.444Z,92646.25
2022-08-25T14:35:38.376Z,92647.03
2022-08-25T14:37:12.572Z,92644.44
2022-08-25T14:38:48.100Z,92642.53
2022-08-25T14:40:29.870Z,92644.19
2022-08-25T14:42:06.042Z,92649.84
2022-08-25T14:43:40.916Z,92650.00
2022-08-25T14:45:13.019Z,92647.69
2022-08-25T14:46:46.212Z,92647.22
2022-08-25T14:48:20.595Z,92638.41
2022-08-25T14:49:56.249Z,92637.97
2022-08-25T14:51:30.941Z,92640.22
2022-08-25T14:53:10.492Z,92649.13
2022-08-25T14:54:45.650Z,92650.56
2022-08-25T14:56:29.480Z,92650.16
2022-08-25T14:58:25.899Z,92650.28
2022-08-25T14:59:58.944Z,92648.19
2022-08-25T15:01:33.673Z,92651.97
2022-08-25T15:03:11.468Z,92644.25
2022-08-25T15:04:49.175Z,92649.03
2022-08-25T15:06:44.145Z,92646.84
2022-08-25T15:08:34.794Z,92647.41
2022-08-25T15:10:13.767Z,92644.09
2022-08-25T15:11:50.936Z,92638.13
2022-08-25T15:13:23.181Z,92639.53
2022-08-25T15:14:56.122Z,92642.00
2022-08-25T15:16:35.288Z,92636.47
2022-08-25T15:18:20.344Z,92649.31
2022-08-25T15:20:01.833Z,92651.88
2022-08-25T15:21:38.646Z,92650.94
2022-08-25T15:23:16.467Z,92648.25
2022-08-25T15:24:51.269Z,92651.66
2022-08-25T15:26:27.716Z,92647.94
2022-08-25T15:28:00.289Z,92652.69
2022-08-25T15:29:35.904Z,92652.19
2022-08-25T15:31:08.946Z,92647.84
2022-08-25T15:32:41.348Z,92639.38
2022-08-25T15:34:14.906Z,92651.09
2022-08-25T15:35:51.406Z,92641.91
2022-08-25T15:37:27.065Z,92644.00
2022-08-25T15:39:14.108Z,92639.47
2022-08-25T15:40:58.175Z,92643.03
2022-08-25T15:42:42.839Z,92643.00
2022-08-25T15:44:29.633Z,92643.94
2022-08-25T15:50:10.699Z,92652.69
2022-08-25T15:51:42.593Z,92658.44
2022-08-25T15:53:18.106Z,92656.63
2022-08-25T15:55:02.554Z,92649.81
2022-08-25T15:56:37.672Z,92653.69
2022-08-25T15:58:30.371Z,92659.25
2022-08-25T16:00:31.831Z,92649.41
2022-08-25T16:02:04.491Z,92662.88
2022-08-25T16:05:31.814Z,92655.44
2022-08-25T16:07:07.042Z,92652.75
2022-08-25T16:08:59.882Z,92658.78
2022-08-25T16:12:56.841Z,92644.72
2022-08-25T16:14:59.323Z,92650.47
2022-08-25T16:16:36.485Z,92640.47
2022-08-25T16:18:29.687Z,92645.63
2022-08-25T16:28:06.748Z,92647.66
2022-08-25T16:30:40.161Z,92647.84
2022-08-25T16:45:45.644Z,92659.66
2022-08-25T16:47:22.350Z,92677.84
2022-08-25T16:49:03.036Z,92674.31
2022-08-25T16:51:29.462Z,92682.56
2022-08-25T16:55:27.702Z,92698.88
2022-08-25T16:57:03.716Z,92693.00
2022-08-25T16:58:36.010Z,92695.38
2022-08-25T17:00:13.510Z,92694.28
2022-08-25T17:01:46.159Z,92693.97
2022-08-25T17:03:18.254Z,92701.97
2022-08-25T17:04:50.180Z,92700.78
2022-08-25T17:06:24.815Z,92699.63
2022-08-25T17:08:15.831Z,92705.53
2022-08-25T17:09:48.400Z,92709.13
2022-08-25T17:11:29.881Z,92709.50
2022-08-25T17:13:01.685Z,92711.47
2022-08-25T17:14:33.849Z,92711.94
2022-08-25T17:16:06.196Z,92716.28
2022-08-25T17:17:38.353Z,92710.81
2022-08-25T17:19:13.015Z,92719.84
2022-08-25T17:20:45.478Z,92718.28
2022-08-25T17:22:17.345Z,92719.88
2022-08-25T17:23:49.385Z,92727.38
2022-08-25T17:25:22.958Z,92728.22
2022-08-25T17:26:59.186Z,92725.88
2022-08-25T17:28:31.660Z,92721.94
2022-08-25T17:30:04.221Z,92725.09
2022-08-25T17:31:40.392Z,92725.88
2022-08-25T17:33:14.304Z,92723.53
2022-08-25T17:34:46.964Z,92734.13
2022-08-25T17:36:19.131Z,92727.50
2022-08-25T17:37:50.999Z,92736.91
2022-08-25T17:39:25.442Z,92733.78
2022-08-25T17:40:58.108Z,92734.56
2022-08-25T17:42:32.213Z,92743.22
2022-08-25T17:44:04.549Z,92741.63
2022-08-25T17:45:36.688Z,92736.13
2022-08-25T17:47:08.505Z,92736.91
2022-08-25T17:48:43.825Z,92734.97
2022-08-25T17:50:15.890Z,92743.59
2022-08-25T17:51:48.601Z,92740.47
2022-08-25T17:53:21.296Z,92745.91
2022-08-25T17:54:54.777Z,92752.59
2022-08-25T17:56:31.924Z,92746.31
2022-08-25T17:58:03.766Z,92747.50
2022-08-25T17:59:37.528Z,92760.47
2022-08-25T18:01:14.862Z,92745.94
2022-08-25T18:02:47.532Z,92755.78
2022-08-25T18:04:19.482Z,92759.72
2022-08-25T18:05:55.394Z,92753.44
2022-08-25T18:07:27.478Z,92758.56
2022-08-25T18:09:01.658Z,92749.94
2022-08-25T18:10:35.094Z,92758.22
2022-08-25T18:12:07.679Z,92751.16
2022-08-25T18:13:40.201Z,92750.38
2022-08-25T18:15:12.631Z,92747.22
2022-08-25T18:16:46.466Z,92744.88
2022-08-25T18:18:18.396Z,92740.19
2022-08-25T18:19:51.241Z,92742.13
2022-08-25T18:21:23.836Z,92743.69
2022-08-25T18:22:58.604Z,92745.66
2022-08-25T18:24:31.442Z,92743.72
2022-08-25T18:26:04.417Z,92748.03
2022-08-25T18:27:38.554Z,92750.00
2022-08-25T18:29:13.732Z,92747.25
2022-08-25T18:30:46.365Z,92747.25
2022-08-25T18:32:19.500Z,92752.34
2022-08-25T18:33:52.252Z,92753.50
2022-08-25T18:35:26.711Z,92750.34
2022-08-25T18:37:18.887Z,92755.06
2022-08-25T18:39:09.300Z,92746.41
2022-08-25T18:40:42.177Z,92743.25
2022-08-25T18:42:14.488Z,92746.38
2022-08-25T18:43:46.591Z,92742.44
2022-08-25T18:45:18.946Z,92744.41
2022-08-25T18:46:50.861Z,92744.38
2022-08-25T18:48:26.825Z,92743.59
2022-08-25T18:50:02.672Z,92738.88
2022-08-25T18:51:36.669Z,92732.59
2022-08-25T18:53:08.902Z,92743.16
2022-08-25T18:54:41.451Z,92748.63
2022-08-25T18:56:13.848Z,92754.84
2022-08-25T18:57:46.824Z,92750.53
2022-08-25T18:59:19.429Z,92750.94
2022-08-25T19:00:51.380Z,92759.53
2022-08-25T19:02:23.303Z,92758.72
2022-08-25T19:03:55.760Z,92759.88
2022-08-25T19:05:33.053Z,92750.84
2022-08-25T19:07:05.206Z,92758.25
2022-08-25T19:08:42.592Z,92758.25
2022-08-25T19:10:14.588Z,92755.47
2022-08-25T19:11:47.756Z,92756.63
2022-08-25T19:13:22.408Z,92764.03
2022-08-25T19:14:55.025Z,92764.03
2022-08-25T19:16:34.802Z,92757.00
2022-08-25T19:18:09.984Z,92756.19
2022-08-25T19:19:43.057Z,92761.25
2022-08-25T19:21:16.075Z,92757.72
2022-08-25T19:22:47.970Z,92761.69
2022-08-25T19:24:19.989Z,92763.25
2022-08-25T19:25:51.844Z,92758.91
2022-08-25T19:27:25.301Z,92756.16
2022-08-25T19:29:17.786Z,92758.47
2022-08-25T19:30:50.938Z,92760.41
2022-08-25T19:32:22.787Z,92760.34
2022-08-25T19:33:55.503Z,92756.78
2022-08-25T19:35:32.016Z,92755.53
2022-08-25T19:37:04.559Z,92752.75
2022-08-25T19:38:36.337Z,92755.47
2022-08-25T19:40:08.825Z,92759.75
2022-08-25T19:41:43.846Z,92755.09
2022-08-25T19:43:15.799Z,92757.91
2022-08-25T19:44:49.307Z,92761.31
2022-08-25T19:46:21.720Z,92767.16
2022-08-25T19:47:53.739Z,92765.19
2022-08-25T19:49:26.782Z,92764.34
2022-08-25T19:50:58.736Z,92760.47
2022-08-25T19:52:31.979Z,92769.41
2022-08-25T19:54:04.572Z,92762.00
2022-08-25T19:55:36.542Z,92769.03
2022-08-25T19:57:10.570Z,92765.94
2022-08-25T19:58:43.013Z,92758.88
2022-08-25T20:00:16.703Z,92758.09
2022-08-25T20:01:49.810Z,92759.25
2022-08-25T20:03:21.778Z,92764.34
2022-08-25T20:04:55.909Z,92760.84
2022-08-25T20:06:28.179Z,92763.50
2022-08-25T20:08:00.146Z,92757.97
2022-08-25T20:09:39.584Z,92756.34
2022-08-25T20:11:16.186Z,92754.78
2022-08-25T20:12:48.718Z,92765.66
2022-08-25T20:14:20.512Z,92761.34